sensor_id;sensor_type;location;lat;lon;timestamp;P1;durP1;ratioP1;P2;durP2;ratioP2
50569;SDS011;36525;49.398;7.614;2023-05-10T00:02:22;3.97;;;2.58;;
50569;SDS011;36525;49.398;7.614;2023-05-10T00:04:50;5.57;;;2.80;;
50569;SDS011;36525;49.398;7.614;2023-05-10T00:07:18;3.63;;;2.40;;
50569;SDS011;36525;49.398;7.614;2023-05-10T00:09:46;3.17;;;2.88;;
50569;SDS011;36525;49.398;7.614;2023-05-10T00:12:13;3.35;;;2.70;;
50569;SDS011;36525;49.398;7.614;2023-05-10T00:14:40;3.08;;;2.60;;
50569;SDS011;36525;49.398;7.614;2023-05-10T00:17:07;4.78;;;2.70;;
50569;SDS011;36525;49.398;7.614;2023-05-10T00:19:35;5.40;;;2.47;;
50569;SDS011;36525;49.398;7.614;2023-05-10T00:22:02;3.03;;;2.53;;
50569;SDS011;36525;49.398;7.614;2023-05-10T00:24:29;4.18;;;2.25;;
50569;SDS011;36525;49.398;7.614;2023-05-10T00:26:56;2.50;;;2.00;;
50569;SDS011;36525;49.398;7.614;2023-05-10T00:29:23;2.90;;;1.90;;
50569;SDS011;36525;49.398;7.614;2023-05-10T00:31:50;2.45;;;2.00;;
50569;SDS011;36525;49.398;7.614;2023-05-10T00:34:17;10.40;;;3.28;;
50569;SDS011;36525;49.398;7.614;2023-05-10T00:36:44;3.00;;;2.25;;
50569;SDS011;36525;49.398;7.614;2023-05-10T00:39:11;7.03;;;3.08;;
50569;SDS011;36525;49.398;7.614;2023-05-10T00:41:39;6.82;;;3.90;;
50569;SDS011;36525;49.398;7.614;2023-05-10T00:44:07;6.20;;;4.70;;
50569;SDS011;36525;49.398;7.614;2023-05-10T00:46:34;4.88;;;4.38;;
50569;SDS011;36525;49.398;7.614;2023-05-10T00:49:02;6.72;;;5.25;;
50569;SDS011;36525;49.398;7.614;2023-05-10T00:51:30;9.30;;;5.35;;
50569;SDS011;36525;49.398;7.614;2023-05-10T00:53:58;5.75;;;4.28;;
50569;SDS011;36525;49.398;7.614;2023-05-10T00:56:25;7.40;;;5.13;;
50569;SDS011;36525;49.398;7.614;2023-05-10T00:58:54;8.07;;;4.32;;
50569;SDS011;36525;49.398;7.614;2023-05-10T01:01:22;5.20;;;4.38;;
50569;SDS011;36525;49.398;7.614;2023-05-10T01:03:49;6.18;;;5.40;;
50569;SDS011;36525;49.398;7.614;2023-05-10T01:06:17;5.55;;;5.05;;
50569;SDS011;36525;49.398;7.614;2023-05-10T01:08:43;8.77;;;6.25;;
50569;SDS011;36525;49.398;7.614;2023-05-10T01:11:11;6.90;;;5.65;;
50569;SDS011;36525;49.398;7.614;2023-05-10T01:13:38;8.30;;;7.50;;
50569;SDS011;36525;49.398;7.614;2023-05-10T01:16:08;7.28;;;6.50;;
50569;SDS011;36525;49.398;7.614;2023-05-10T01:18:36;8.48;;;6.97;;
50569;SDS011;36525;49.398;7.614;2023-05-10T01:39:04;4.75;;;4.25;;
50569;SDS011;36525;49.398;7.614;2023-05-10T01:42:09;6.63;;;4.00;;
50569;SDS011;36525;49.398;7.614;2023-05-10T01:44:46;6.75;;;5.22;;
50569;SDS011;36525;49.398;7.614;2023-05-10T01:50:00;7.25;;;4.13;;
50569;SDS011;36525;49.398;7.614;2023-05-10T01:52:33;8.32;;;4.40;;
50569;SDS011;36525;49.398;7.614;2023-05-10T01:55:09;6.28;;;4.10;;
50569;SDS011;36525;49.398;7.614;2023-05-10T01:57:40;8.32;;;4.00;;
50569;SDS011;36525;49.398;7.614;2023-05-10T02:00:10;8.52;;;4.55;;
50569;SDS011;36525;49.398;7.614;2023-05-10T02:02:42;11.80;;;5.10;;
50569;SDS011;36525;49.398;7.614;2023-05-10T02:07:41;6.43;;;5.30;;
50569;SDS011;36525;49.398;7.614;2023-05-10T02:10:09;7.25;;;6.60;;
50569;SDS011;36525;49.398;7.614;2023-05-10T02:12:42;11.00;;;6.57;;
50569;SDS011;36525;49.398;7.614;2023-05-10T02:15:11;7.95;;;5.95;;
50569;SDS011;36525;49.398;7.614;2023-05-10T02:17:43;8.02;;;7.22;;
50569;SDS011;36525;49.398;7.614;2023-05-10T02:20:12;8.18;;;7.38;;
50569;SDS011;36525;49.398;7.614;2023-05-10T02:22:42;8.77;;;7.53;;
50569;SDS011;36525;49.398;7.614;2023-05-10T02:25:11;9.43;;;7.03;;
50569;SDS011;36525;49.398;7.614;2023-05-10T02:27:40;6.78;;;6.07;;
50569;SDS011;36525;49.398;7.614;2023-05-10T02:30:12;11.73;;;7.43;;
50569;SDS011;36525;49.398;7.614;2023-05-10T02:32:40;7.70;;;6.78;;
50569;SDS011;36525;49.398;7.614;2023-05-10T02:35:09;10.70;;;6.80;;
50569;SDS011;36525;49.398;7.614;2023-05-10T02:37:37;7.55;;;6.80;;
50569;SDS011;36525;49.398;7.614;2023-05-10T02:40:06;8.18;;;7.13;;
50569;SDS011;36525;49.398;7.614;2023-05-10T02:42:35;11.80;;;6.55;;
50569;SDS011;36525;49.398;7.614;2023-05-10T02:45:11;7.15;;;5.75;;
50569;SDS011;36525;49.398;7.614;2023-05-10T02:47:45;9.02;;;5.82;;
50569;SDS011;36525;49.398;7.614;2023-05-10T02:50:12;8.40;;;6.80;;
50569;SDS011;36525;49.398;7.614;2023-05-10T02:52:40;6.93;;;5.45;;
50569;SDS011;36525;49.398;7.614;2023-05-10T02:55:14;7.57;;;6.68;;
50569;SDS011;36525;49.398;7.614;2023-05-10T02:57:46;8.93;;;6.43;;
50569;SDS011;36525;49.398;7.614;2023-05-10T03:00:19;8.27;;;6.35;;
50569;SDS011;36525;49.398;7.614;2023-05-10T03:02:48;11.52;;;7.18;;
50569;SDS011;36525;49.398;7.614;2023-05-10T03:05:14;8.98;;;7.30;;
50569;SDS011;36525;49.398;7.614;2023-05-10T03:07:42;11.52;;;8.43;;
50569;SDS011;36525;49.398;7.614;2023-05-10T03:10:09;10.68;;;9.48;;
50569;SDS011;36525;49.398;7.614;2023-05-10T03:18:44;9.75;;;8.75;;
50569;SDS011;36525;49.398;7.614;2023-05-10T03:21:22;10.55;;;8.43;;
50569;SDS011;36525;49.398;7.614;2023-05-10T03:23:59;9.77;;;8.80;;
50569;SDS011;36525;49.398;7.614;2023-05-10T03:26:34;10.15;;;7.63;;
50569;SDS011;36525;49.398;7.614;2023-05-10T03:29:04;10.90;;;8.90;;
50569;SDS011;36525;49.398;7.614;2023-05-10T03:31:33;9.35;;;8.40;;
50569;SDS011;36525;49.398;7.614;2023-05-10T03:34:00;8.45;;;7.35;;
50569;SDS011;36525;49.398;7.614;2023-05-10T03:36:27;9.60;;;8.38;;
50569;SDS011;36525;49.398;7.614;2023-05-10T03:38:55;9.80;;;8.80;;
50569;SDS011;36525;49.398;7.614;2023-05-10T03:41:22;9.23;;;8.32;;
50569;SDS011;36525;49.398;7.614;2023-05-10T03:43:49;10.85;;;9.13;;
50569;SDS011;36525;49.398;7.614;2023-05-10T03:46:16;10.15;;;9.15;;
50569;SDS011;36525;49.398;7.614;2023-05-10T03:48:44;10.90;;;9.52;;
50569;SDS011;36525;49.398;7.614;2023-05-10T03:51:11;13.15;;;9.60;;
50569;SDS011;36525;49.398;7.614;2023-05-10T03:53:38;11.70;;;9.50;;
50569;SDS011;36525;49.398;7.614;2023-05-10T03:56:05;10.32;;;8.65;;
50569;SDS011;36525;49.398;7.614;2023-05-10T03:58:33;14.75;;;9.20;;
50569;SDS011;36525;49.398;7.614;2023-05-10T04:01:00;8.85;;;6.43;;
50569;SDS011;36525;49.398;7.614;2023-05-10T04:03:27;5.53;;;3.50;;
50569;SDS011;36525;49.398;7.614;2023-05-10T04:05:58;10.40;;;5.18;;
50569;SDS011;36525;49.398;7.614;2023-05-10T04:08:29;6.13;;;4.68;;
50569;SDS011;36525;49.398;7.614;2023-05-10T04:11:07;6.20;;;3.88;;
50569;SDS011;36525;49.398;7.614;2023-05-10T04:13:36;5.88;;;4.55;;
50569;SDS011;36525;49.398;7.614;2023-05-10T04:16:04;6.80;;;3.65;;
50569;SDS011;36525;49.398;7.614;2023-05-10T04:18:32;6.07;;;4.30;;
50569;SDS011;36525;49.398;7.614;2023-05-10T04:20:59;6.03;;;4.32;;
50569;SDS011;36525;49.398;7.614;2023-05-10T04:23:29;5.68;;;4.85;;
50569;SDS011;36525;49.398;7.614;2023-05-10T04:26:00;6.10;;;4.50;;
50569;SDS011;36525;49.398;7.614;2023-05-10T04:28:28;5.78;;;4.43;;
50569;SDS011;36525;49.398;7.614;2023-05-10T04:31:28;5.75;;;5.15;;
50569;SDS011;36525;49.398;7.614;2023-05-10T04:33:49;11.80;;;5.03;;
50569;SDS011;36525;49.398;7.614;2023-05-10T04:36:16;6.05;;;5.15;;
50569;SDS011;36525;49.398;7.614;2023-05-10T04:38:43;5.80;;;4.97;;
50569;SDS011;36525;49.398;7.614;2023-05-10T04:41:13;7.18;;;4.95;;
50569;SDS011;36525;49.398;7.614;2023-05-10T04:43:40;7.00;;;5.25;;
50569;SDS011;36525;49.398;7.614;2023-05-10T04:46:07;6.15;;;4.85;;
50569;SDS011;36525;49.398;7.614;2023-05-10T04:48:38;7.13;;;5.72;;
50569;SDS011;36525;49.398;7.614;2023-05-10T04:51:05;10.60;;;7.45;;
50569;SDS011;36525;49.398;7.614;2023-05-10T04:53:35;11.88;;;8.73;;
50569;SDS011;36525;49.398;7.614;2023-05-10T04:56:03;8.05;;;5.50;;
50569;SDS011;36525;49.398;7.614;2023-05-10T04:58:30;5.88;;;5.03;;
50569;SDS011;36525;49.398;7.614;2023-05-10T05:00:59;8.93;;;6.40;;
50569;SDS011;36525;49.398;7.614;2023-05-10T05:03:33;5.90;;;5.03;;
50569;SDS011;36525;49.398;7.614;2023-05-10T05:06:00;9.40;;;5.90;;
50569;SDS011;36525;49.398;7.614;2023-05-10T05:08:28;5.55;;;5.00;;
50569;SDS011;36525;49.398;7.614;2023-05-10T05:10:55;5.70;;;4.63;;
50569;SDS011;36525;49.398;7.614;2023-05-10T05:13:22;7.00;;;4.90;;
50569;SDS011;36525;49.398;7.614;2023-05-10T05:15:50;7.78;;;5.05;;
50569;SDS011;36525;49.398;7.614;2023-05-10T05:18:18;6.85;;;5.18;;
50569;SDS011;36525;49.398;7.614;2023-05-10T05:20:45;7.13;;;4.78;;
50569;SDS011;36525;49.398;7.614;2023-05-10T05:23:13;6.30;;;4.55;;
50569;SDS011;36525;49.398;7.614;2023-05-10T05:25:40;6.65;;;4.50;;
50569;SDS011;36525;49.398;7.614;2023-05-10T05:28:08;6.05;;;3.13;;
50569;SDS011;36525;49.398;7.614;2023-05-10T05:30:35;5.93;;;4.32;;
50569;SDS011;36525;49.398;7.614;2023-05-10T05:33:02;8.50;;;2.80;;
50569;SDS011;36525;49.398;7.614;2023-05-10T05:35:30;6.25;;;2.80;;
50569;SDS011;36525;49.398;7.614;2023-05-10T05:37:57;6.05;;;2.83;;
50569;SDS011;36525;49.398;7.614;2023-05-10T05:40:27;3.83;;;2.60;;
50569;SDS011;36525;49.398;7.614;2023-05-10T05:42:54;4.15;;;2.63;;
50569;SDS011;36525;49.398;7.614;2023-05-10T05:45:27;5.82;;;3.10;;
50569;SDS011;36525;49.398;7.614;2023-05-10T05:47:54;5.30;;;3.22;;
50569;SDS011;36525;49.398;7.614;2023-05-10T05:50:25;4.30;;;2.80;;
50569;SDS011;36525;49.398;7.614;2023-05-10T05:52:52;4.45;;;3.25;;
50569;SDS011;36525;49.398;7.614;2023-05-10T05:55:19;3.70;;;2.40;;
50569;SDS011;36525;49.398;7.614;2023-05-10T05:57:46;3.13;;;2.10;;
50569;SDS011;36525;49.398;7.614;2023-05-10T06:00:13;5.22;;;2.47;;
50569;SDS011;36525;49.398;7.614;2023-05-10T06:02:41;3.33;;;2.47;;
50569;SDS011;36525;49.398;7.614;2023-05-10T06:05:09;3.40;;;2.00;;
50569;SDS011;36525;49.398;7.614;2023-05-10T06:07:36;6.60;;;2.53;;
50569;SDS011;36525;49.398;7.614;2023-05-10T06:10:03;5.30;;;1.90;;
50569;SDS011;36525;49.398;7.614;2023-05-10T06:12:35;3.90;;;1.87;;
50569;SDS011;36525;49.398;7.614;2023-05-10T06:15:02;3.58;;;1.92;;
50569;SDS011;36525;49.398;7.614;2023-05-10T06:17:31;3.17;;;1.88;;
50569;SDS011;36525;49.398;7.614;2023-05-10T06:19:58;3.30;;;1.92;;
50569;SDS011;36525;49.398;7.614;2023-05-10T06:22:25;6.13;;;2.45;;
50569;SDS011;36525;49.398;7.614;2023-05-10T06:24:52;3.20;;;1.70;;
50569;SDS011;36525;49.398;7.614;2023-05-10T06:27:19;5.20;;;1.80;;
50569;SDS011;36525;49.398;7.614;2023-05-10T06:29:46;4.70;;;1.98;;
50569;SDS011;36525;49.398;7.614;2023-05-10T06:34:46;2.90;;;2.30;;
50569;SDS011;36525;49.398;7.614;2023-05-10T06:37:13;3.78;;;2.30;;
50569;SDS011;36525;49.398;7.614;2023-05-10T06:39:40;4.45;;;2.78;;
50569;SDS011;36525;49.398;7.614;2023-05-10T06:42:07;8.30;;;2.65;;
50569;SDS011;36525;49.398;7.614;2023-05-10T06:44:34;6.82;;;2.22;;
50569;SDS011;36525;49.398;7.614;2023-05-10T06:47:02;4.22;;;2.60;;
50569;SDS011;36525;49.398;7.614;2023-05-10T06:49:30;4.57;;;3.05;;
50569;SDS011;36525;49.398;7.614;2023-05-10T06:52:01;5.43;;;2.53;;
50569;SDS011;36525;49.398;7.614;2023-05-10T06:54:29;3.90;;;2.50;;
50569;SDS011;36525;49.398;7.614;2023-05-10T06:56:56;4.60;;;2.38;;
50569;SDS011;36525;49.398;7.614;2023-05-10T06:59:23;6.60;;;2.10;;
50569;SDS011;36525;49.398;7.614;2023-05-10T07:01:53;4.88;;;1.95;;
50569;SDS011;36525;49.398;7.614;2023-05-10T07:04:23;4.32;;;2.30;;
50569;SDS011;36525;49.398;7.614;2023-05-10T07:06:50;3.78;;;1.92;;
50569;SDS011;36525;49.398;7.614;2023-05-10T07:09:18;7.68;;;2.58;;
50569;SDS011;36525;49.398;7.614;2023-05-10T07:11:45;3.92;;;1.50;;
50569;SDS011;36525;49.398;7.614;2023-05-10T07:14:12;4.57;;;1.77;;
50569;SDS011;36525;49.398;7.614;2023-05-10T07:16:42;2.95;;;1.42;;
50569;SDS011;36525;49.398;7.614;2023-05-10T07:19:09;4.57;;;1.40;;
50569;SDS011;36525;49.398;7.614;2023-05-10T07:21:36;3.20;;;1.73;;
50569;SDS011;36525;49.398;7.614;2023-05-10T07:24:03;4.85;;;1.65;;
50569;SDS011;36525;49.398;7.614;2023-05-10T07:26:31;3.90;;;1.70;;
50569;SDS011;36525;49.398;7.614;2023-05-10T07:28:58;2.70;;;1.65;;
50569;SDS011;36525;49.398;7.614;2023-05-10T07:31:25;4.25;;;1.73;;
50569;SDS011;36525;49.398;7.614;2023-05-10T07:33:53;3.15;;;1.13;;
50569;SDS011;36525;49.398;7.614;2023-05-10T07:36:22;4.53;;;1.30;;
50569;SDS011;36525;49.398;7.614;2023-05-10T07:38:49;3.45;;;1.25;;
50569;SDS011;36525;49.398;7.614;2023-05-10T07:41:16;1.55;;;0.88;;
50569;SDS011;36525;49.398;7.614;2023-05-10T07:43:47;1.75;;;0.80;;
50569;SDS011;36525;49.398;7.614;2023-05-10T07:46:14;0.98;;;0.70;;
50569;SDS011;36525;49.398;7.614;2023-05-10T07:48:41;1.73;;;0.70;;
50569;SDS011;36525;49.398;7.614;2023-05-10T07:51:08;3.17;;;0.60;;
50569;SDS011;36525;49.398;7.614;2023-05-10T07:53:35;2.72;;;0.70;;
50569;SDS011;36525;49.398;7.614;2023-05-10T07:56:20;1.80;;;0.70;;
50569;SDS011;36525;49.398;7.614;2023-05-10T07:58:53;4.28;;;0.90;;
50569;SDS011;36525;49.398;7.614;2023-05-10T08:01:30;3.33;;;0.80;;
50569;SDS011;36525;49.398;7.614;2023-05-10T08:06:28;5.63;;;1.20;;
50569;SDS011;36525;49.398;7.614;2023-05-10T08:08:56;1.15;;;0.70;;
50569;SDS011;36525;49.398;7.614;2023-05-10T08:11:23;2.22;;;0.73;;
50569;SDS011;36525;49.398;7.614;2023-05-10T08:13:51;2.45;;;0.85;;
50569;SDS011;36525;49.398;7.614;2023-05-10T08:16:20;6.90;;;1.20;;
50569;SDS011;36525;49.398;7.614;2023-05-10T08:18:47;2.33;;;0.80;;
50569;SDS011;36525;49.398;7.614;2023-05-10T08:21:15;2.00;;;0.93;;
50569;SDS011;36525;49.398;7.614;2023-05-10T08:23:42;2.28;;;0.90;;
50569;SDS011;36525;49.398;7.614;2023-05-10T08:26:10;3.45;;;0.98;;
50569;SDS011;36525;49.398;7.614;2023-05-10T08:28:37;1.95;;;0.82;;
50569;SDS011;36525;49.398;7.614;2023-05-10T08:31:08;7.43;;;1.45;;
50569;SDS011;36525;49.398;7.614;2023-05-10T08:33:36;1.85;;;0.90;;
50569;SDS011;36525;49.398;7.614;2023-05-10T08:36:03;2.45;;;1.00;;
50569;SDS011;36525;49.398;7.614;2023-05-10T08:38:30;3.30;;;0.90;;
50569;SDS011;36525;49.398;7.614;2023-05-10T08:40:57;2.20;;;1.10;;
50569;SDS011;36525;49.398;7.614;2023-05-10T08:43:29;2.00;;;0.90;;
50569;SDS011;36525;49.398;7.614;2023-05-10T08:45:59;3.90;;;0.80;;
50569;SDS011;36525;49.398;7.614;2023-05-10T08:48:29;3.08;;;0.90;;
50569;SDS011;36525;49.398;7.614;2023-05-10T08:50:58;3.47;;;1.00;;
50569;SDS011;36525;49.398;7.614;2023-05-10T08:53:28;3.13;;;0.70;;
50569;SDS011;36525;49.398;7.614;2023-05-10T08:55:57;2.95;;;0.70;;
50569;SDS011;36525;49.398;7.614;2023-05-10T08:58:25;2.95;;;0.80;;
50569;SDS011;36525;49.398;7.614;2023-05-10T09:00:52;5.28;;;0.60;;
50569;SDS011;36525;49.398;7.614;2023-05-10T09:03:20;2.35;;;1.00;;
50569;SDS011;36525;49.398;7.614;2023-05-10T09:05:48;1.95;;;0.70;;
50569;SDS011;36525;49.398;7.614;2023-05-10T09:08:15;1.50;;;0.63;;
50569;SDS011;36525;49.398;7.614;2023-05-10T09:10:43;3.10;;;0.63;;
50569;SDS011;36525;49.398;7.614;2023-05-10T09:13:14;2.80;;;0.60;;
50569;SDS011;36525;49.398;7.614;2023-05-10T09:15:43;4.13;;;0.63;;
50569;SDS011;36525;49.398;7.614;2023-05-10T09:18:11;0.88;;;0.60;;
50569;SDS011;36525;49.398;7.614;2023-05-10T09:20:39;2.40;;;0.57;;
50569;SDS011;36525;49.398;7.614;2023-05-10T09:23:07;2.85;;;0.50;;
50569;SDS011;36525;49.398;7.614;2023-05-10T09:25:35;3.38;;;0.80;;
50569;SDS011;36525;49.398;7.614;2023-05-10T09:28:05;2.30;;;0.68;;
50569;SDS011;36525;49.398;7.614;2023-05-10T09:30:34;2.88;;;0.93;;
50569;SDS011;36525;49.398;7.614;2023-05-10T09:33:02;5.72;;;1.00;;
50569;SDS011;36525;49.398;7.614;2023-05-10T09:35:30;3.70;;;0.80;;
50569;SDS011;36525;49.398;7.614;2023-05-10T09:38:02;2.65;;;0.75;;
50569;SDS011;36525;49.398;7.614;2023-05-10T09:40:30;4.28;;;0.90;;
50569;SDS011;36525;49.398;7.614;2023-05-10T09:42:59;4.07;;;0.77;;
50569;SDS011;36525;49.398;7.614;2023-05-10T09:45:29;9.15;;;1.00;;
50569;SDS011;36525;49.398;7.614;2023-05-10T09:48:01;5.20;;;0.80;;
50569;SDS011;36525;49.398;7.614;2023-05-10T09:50:29;3.63;;;0.73;;
50569;SDS011;36525;49.398;7.614;2023-05-10T09:58:05;3.08;;;0.60;;
50569;SDS011;36525;49.398;7.614;2023-05-10T10:03:06;3.03;;;0.63;;
50569;SDS011;36525;49.398;7.614;2023-05-10T10:05:42;2.15;;;0.60;;
50569;SDS011;36525;49.398;7.614;2023-05-10T10:08:10;25.60;;;12.90;;
50569;SDS011;36525;49.398;7.614;2023-05-10T10:10:38;6.80;;;1.20;;
50569;SDS011;36525;49.398;7.614;2023-05-10T10:13:11;3.22;;;0.75;;
50569;SDS011;36525;49.398;7.614;2023-05-10T10:15:39;5.07;;;0.75;;
50569;SDS011;36525;49.398;7.614;2023-05-10T10:18:06;6.22;;;0.70;;
50569;SDS011;36525;49.398;7.614;2023-05-10T10:20:39;4.53;;;0.80;;
50569;SDS011;36525;49.398;7.614;2023-05-10T10:23:07;7.47;;;0.98;;
50569;SDS011;36525;49.398;7.614;2023-05-10T10:25:35;4.32;;;0.70;;
50569;SDS011;36525;49.398;7.614;2023-05-10T10:30:54;2.42;;;0.77;;
50569;SDS011;36525;49.398;7.614;2023-05-10T10:36:06;6.60;;;1.00;;
50569;SDS011;36525;49.398;7.614;2023-05-10T10:41:32;4.03;;;1.00;;
50569;SDS011;36525;49.398;7.614;2023-05-10T10:50:06;4.78;;;1.10;;
50569;SDS011;36525;49.398;7.614;2023-05-10T10:52:38;2.25;;;0.80;;
50569;SDS011;36525;49.398;7.614;2023-05-10T10:55:13;3.78;;;0.80;;
50569;SDS011;36525;49.398;7.614;2023-05-10T10:57:52;5.00;;;1.10;;
50569;SDS011;36525;49.398;7.614;2023-05-10T11:03:04;4.50;;;0.70;;
50569;SDS011;36525;49.398;7.614;2023-05-10T11:08:15;3.28;;;0.60;;
50569;SDS011;36525;49.398;7.614;2023-05-10T11:13:34;3.28;;;0.65;;
50569;SDS011;36525;49.398;7.614;2023-05-10T11:16:18;3.30;;;0.60;;
50569;SDS011;36525;49.398;7.614;2023-05-10T11:21:24;3.60;;;0.60;;
50569;SDS011;36525;49.398;7.614;2023-05-10T11:23:52;2.05;;;0.60;;
50569;SDS011;36525;49.398;7.614;2023-05-10T11:26:26;4.10;;;0.73;;
50569;SDS011;36525;49.398;7.614;2023-05-10T11:28:58;2.30;;;0.70;;
50569;SDS011;36525;49.398;7.614;2023-05-10T11:31:27;4.05;;;0.65;;
50569;SDS011;36525;49.398;7.614;2023-05-10T11:33:57;2.13;;;0.60;;
50569;SDS011;36525;49.398;7.614;2023-05-10T11:36:29;2.47;;;0.45;;
50569;SDS011;36525;49.398;7.614;2023-05-10T11:39:00;2.03;;;0.40;;
50569;SDS011;36525;49.398;7.614;2023-05-10T11:41:28;2.65;;;0.40;;
50569;SDS011;36525;49.398;7.614;2023-05-10T11:43:56;6.95;;;0.60;;
50569;SDS011;36525;49.398;7.614;2023-05-10T11:46:25;3.33;;;0.40;;
50569;SDS011;36525;49.398;7.614;2023-05-10T11:48:55;4.57;;;0.40;;
50569;SDS011;36525;49.398;7.614;2023-05-10T11:51:27;1.20;;;0.30;;
50569;SDS011;36525;49.398;7.614;2023-05-10T11:53:55;2.15;;;0.30;;
50569;SDS011;36525;49.398;7.614;2023-05-10T11:56:23;1.58;;;0.32;;
50569;SDS011;36525;49.398;7.614;2023-05-10T11:58:53;0.57;;;0.30;;
50569;SDS011;36525;49.398;7.614;2023-05-10T12:01:26;1.77;;;0.47;;
50569;SDS011;36525;49.398;7.614;2023-05-10T12:03:54;1.67;;;0.50;;
50569;SDS011;36525;49.398;7.614;2023-05-10T12:06:27;3.97;;;0.40;;
50569;SDS011;36525;49.398;7.614;2023-05-10T12:08:58;4.15;;;0.75;;
50569;SDS011;36525;49.398;7.614;2023-05-10T12:11:32;2.45;;;0.40;;
50569;SDS011;36525;49.398;7.614;2023-05-10T12:14:04;1.58;;;0.52;;
50569;SDS011;36525;49.398;7.614;2023-05-10T12:16:31;1.23;;;0.93;;
50569;SDS011;36525;49.398;7.614;2023-05-10T12:18:59;1.77;;;0.40;;
50569;SDS011;36525;49.398;7.614;2023-05-10T12:21:28;2.85;;;0.50;;
50569;SDS011;36525;49.398;7.614;2023-05-10T12:24:01;0.88;;;0.40;;
50569;SDS011;36525;49.398;7.614;2023-05-10T12:26:30;1.80;;;0.40;;
50569;SDS011;36525;49.398;7.614;2023-05-10T12:29:17;2.33;;;0.60;;
50569;SDS011;36525;49.398;7.614;2023-05-10T12:31:52;5.55;;;0.70;;
50569;SDS011;36525;49.398;7.614;2023-05-10T12:36:59;4.15;;;0.60;;
50569;SDS011;36525;49.398;7.614;2023-05-10T12:39:37;3.33;;;0.40;;
50569;SDS011;36525;49.398;7.614;2023-05-10T12:42:08;2.57;;;0.50;;
50569;SDS011;36525;49.398;7.614;2023-05-10T12:44:36;1.15;;;0.50;;
50569;SDS011;36525;49.398;7.614;2023-05-10T12:47:03;2.08;;;0.50;;
50569;SDS011;36525;49.398;7.614;2023-05-10T12:49:30;1.50;;;0.40;;
50569;SDS011;36525;49.398;7.614;2023-05-10T12:51:58;1.52;;;0.40;;
50569;SDS011;36525;49.398;7.614;2023-05-10T12:54:28;1.30;;;0.40;;
50569;SDS011;36525;49.398;7.614;2023-05-10T12:56:55;1.55;;;0.45;;
50569;SDS011;36525;49.398;7.614;2023-05-10T12:59:22;1.95;;;0.40;;
50569;SDS011;36525;49.398;7.614;2023-05-10T13:01:49;2.42;;;0.32;;
50569;SDS011;36525;49.398;7.614;2023-05-10T13:04:16;0.77;;;0.30;;
50569;SDS011;36525;49.398;7.614;2023-05-10T13:06:43;4.90;;;0.50;;
50569;SDS011;36525;49.398;7.614;2023-05-10T13:09:11;2.75;;;0.50;;
50569;SDS011;36525;49.398;7.614;2023-05-10T13:11:38;2.17;;;0.50;;
50569;SDS011;36525;49.398;7.614;2023-05-10T13:14:05;0.80;;;0.40;;
50569;SDS011;36525;49.398;7.614;2023-05-10T13:16:32;1.77;;;0.40;;
50569;SDS011;36525;49.398;7.614;2023-05-10T13:18:59;4.97;;;0.50;;
50569;SDS011;36525;49.398;7.614;2023-05-10T13:21:26;3.38;;;0.57;;
50569;SDS011;36525;49.398;7.614;2023-05-10T13:23:54;1.77;;;0.50;;
50569;SDS011;36525;49.398;7.614;2023-05-10T13:26:21;2.65;;;0.40;;
50569;SDS011;36525;49.398;7.614;2023-05-10T13:28:48;2.13;;;0.45;;
50569;SDS011;36525;49.398;7.614;2023-05-10T13:31:18;1.65;;;0.38;;
50569;SDS011;36525;49.398;7.614;2023-05-10T13:33:45;1.73;;;0.52;;
50569;SDS011;36525;49.398;7.614;2023-05-10T13:36:12;1.90;;;0.50;;
50569;SDS011;36525;49.398;7.614;2023-05-10T13:38:39;1.58;;;0.52;;
50569;SDS011;36525;49.398;7.614;2023-05-10T13:41:06;1.83;;;0.60;;
50569;SDS011;36525;49.398;7.614;2023-05-10T13:43:33;1.83;;;0.50;;
50569;SDS011;36525;49.398;7.614;2023-05-10T13:46:01;4.15;;;0.70;;
50569;SDS011;36525;49.398;7.614;2023-05-10T13:48:29;2.38;;;0.70;;
50569;SDS011;36525;49.398;7.614;2023-05-10T13:50:56;5.40;;;0.60;;
50569;SDS011;36525;49.398;7.614;2023-05-10T13:53:23;1.83;;;0.60;;
50569;SDS011;36525;49.398;7.614;2023-05-10T13:55:53;2.50;;;0.40;;
50569;SDS011;36525;49.398;7.614;2023-05-10T13:58:20;1.40;;;0.40;;
50569;SDS011;36525;49.398;7.614;2023-05-10T14:00:49;1.23;;;0.40;;
50569;SDS011;36525;49.398;7.614;2023-05-10T14:03:17;0.98;;;0.40;;
50569;SDS011;36525;49.398;7.614;2023-05-10T14:05:44;1.90;;;0.50;;
50569;SDS011;36525;49.398;7.614;2023-05-10T14:08:11;0.85;;;0.40;;
50569;SDS011;36525;49.398;7.614;2023-05-10T14:10:39;1.77;;;0.30;;
50569;SDS011;36525;49.398;7.614;2023-05-10T14:13:06;2.30;;;0.40;;
50569;SDS011;36525;49.398;7.614;2023-05-10T14:15:34;3.22;;;0.30;;
50569;SDS011;36525;49.398;7.614;2023-05-10T14:18:01;0.80;;;0.20;;
50569;SDS011;36525;49.398;7.614;2023-05-10T14:20:29;0.70;;;0.40;;
50569;SDS011;36525;49.398;7.614;2023-05-10T14:22:56;3.22;;;0.50;;
50569;SDS011;36525;49.398;7.614;2023-05-10T14:25:23;1.48;;;0.50;;
50569;SDS011;36525;49.398;7.614;2023-05-10T14:27:51;1.88;;;0.50;;
50569;SDS011;36525;49.398;7.614;2023-05-10T14:30:21;3.80;;;0.40;;
50569;SDS011;36525;49.398;7.614;2023-05-10T14:32:48;1.95;;;0.20;;
50569;SDS011;36525;49.398;7.614;2023-05-10T14:35:15;2.10;;;0.50;;
50569;SDS011;36525;49.398;7.614;2023-05-10T14:37:44;2.42;;;0.50;;
50569;SDS011;36525;49.398;7.614;2023-05-10T14:40:15;1.95;;;0.50;;
50569;SDS011;36525;49.398;7.614;2023-05-10T14:42:43;1.70;;;0.38;;
50569;SDS011;36525;49.398;7.614;2023-05-10T14:45:11;2.72;;;0.40;;
50569;SDS011;36525;49.398;7.614;2023-05-10T14:47:39;2.28;;;0.40;;
50569;SDS011;36525;49.398;7.614;2023-05-10T14:50:06;3.38;;;0.40;;
50569;SDS011;36525;49.398;7.614;2023-05-10T14:52:34;2.28;;;0.50;;
50569;SDS011;36525;49.398;7.614;2023-05-10T14:55:01;2.83;;;0.40;;
50569;SDS011;36525;49.398;7.614;2023-05-10T14:57:29;2.00;;;0.50;;
50569;SDS011;36525;49.398;7.614;2023-05-10T14:59:56;1.35;;;0.30;;
50569;SDS011;36525;49.398;7.614;2023-05-10T15:02:26;3.75;;;0.30;;
50569;SDS011;36525;49.398;7.614;2023-05-10T15:04:53;2.72;;;0.40;;
50569;SDS011;36525;49.398;7.614;2023-05-10T15:07:21;1.35;;;0.35;;
50569;SDS011;36525;49.398;7.614;2023-05-10T15:09:49;3.50;;;0.50;;
50569;SDS011;36525;49.398;7.614;2023-05-10T15:12:19;1.67;;;0.40;;
50569;SDS011;36525;49.398;7.614;2023-05-10T15:14:46;0.80;;;0.30;;
50569;SDS011;36525;49.398;7.614;2023-05-10T15:17:14;1.83;;;0.28;;
50569;SDS011;36525;49.398;7.614;2023-05-10T15:19:42;2.63;;;0.68;;
50569;SDS011;36525;49.398;7.614;2023-05-10T15:22:09;5.07;;;0.60;;
50569;SDS011;36525;49.398;7.614;2023-05-10T15:24:36;2.20;;;0.40;;
50569;SDS011;36525;49.398;7.614;2023-05-10T15:27:03;3.15;;;0.40;;
50569;SDS011;36525;49.398;7.614;2023-05-10T15:29:31;1.48;;;0.43;;
50569;SDS011;36525;49.398;7.614;2023-05-10T15:31:59;1.08;;;0.40;;
50569;SDS011;36525;49.398;7.614;2023-05-10T15:34:28;1.20;;;0.40;;
50569;SDS011;36525;49.398;7.614;2023-05-10T15:36:58;4.00;;;0.47;;
50569;SDS011;36525;49.398;7.614;2023-05-10T15:39:26;1.17;;;0.40;;
50569;SDS011;36525;49.398;7.614;2023-05-10T15:41:53;3.60;;;0.50;;
50569;SDS011;36525;49.398;7.614;2023-05-10T15:44:20;1.10;;;0.40;;
50569;SDS011;36525;49.398;7.614;2023-05-10T15:47:04;1.20;;;0.30;;
50569;SDS011;36525;49.398;7.614;2023-05-10T15:49:32;0.45;;;0.30;;
50569;SDS011;36525;49.398;7.614;2023-05-10T15:51:59;2.58;;;0.40;;
50569;SDS011;36525;49.398;7.614;2023-05-10T15:54:27;0.95;;;0.30;;
50569;SDS011;36525;49.398;7.614;2023-05-10T15:56:54;2.40;;;0.20;;
50569;SDS011;36525;49.398;7.614;2023-05-10T15:59:21;1.42;;;0.10;;
50569;SDS011;36525;49.398;7.614;2023-05-10T16:01:49;1.17;;;0.30;;
50569;SDS011;36525;49.398;7.614;2023-05-10T16:04:17;0.82;;;0.30;;
50569;SDS011;36525;49.398;7.614;2023-05-10T16:06:44;2.05;;;0.20;;
50569;SDS011;36525;49.398;7.614;2023-05-10T16:09:11;0.55;;;0.20;;